Time;durP1;ratioP1;P1;durP2;ratioP2;P2;SDS_P1;SDS_P2;PMS_P1;PMS_P2;Temp;Humidity;BMP_temperature;BMP_pressure;BME280_temperature;BME280_humidity;BME280_pressure;Samples;Min_cycle;Max_cycle;Signal;HPM_P1;HPM_P2
2023/01/10 00:01:28;;;;;;;1.25;1.25;;;;;;;5.33;100.00;98332.25;4141138;28;20229;-45
2023/01/10 00:03:29;;;;;;;1.00;1.00;;;;;;;5.29;100.00;98327.47;4155437;28;20633;-46
2023/01/10 00:05:31;;;;;;;1.02;1.02;;;;;;;5.29;100.00;98335.63;4140125;28;20432;-46
2023/01/10 00:07:33;;;;;;;1.10;0.80;;;;;;;5.21;100.00;98339.44;4137926;28;20228;-46
2023/01/10 00:09:34;;;;;;;0.73;0.73;;;;;;;5.18;100.00;98341.75;4135481;28;20345;-45
2023/01/10 00:13:56;;;;;;;0.70;0.70;;;;;;;4.97;100.00;98356.47;4137614;28;20232;-46
2023/01/10 00:16:07;;;;;;;0.60;0.60;;;;;;;5.01;100.00;98347.94;4136458;28;20252;-46
2023/01/10 00:18:09;;;;;;;0.70;0.70;;;;;;;4.94;100.00;98356.09;4143634;28;20631;-45
2023/01/10 00:20:12;;;;;;;0.82;0.82;;;;;;;4.99;100.00;98364.41;4142767;28;20304;-46
2023/01/10 00:22:16;;;;;;;0.73;0.73;;;;;;;5.00;100.00;98376.91;4143820;28;20259;-46
2023/01/10 00:24:18;;;;;;;0.88;0.88;;;;;;;4.91;100.00;98378.22;4139618;28;20656;-46
2023/01/10 00:26:19;;;;;;;1.00;0.80;;;;;;;4.96;100.00;98391.97;4140101;28;20217;-45
2023/01/10 00:28:22;;;;;;;0.90;0.90;;;;;;;5.06;100.00;98395.03;4137597;28;20736;-46
2023/01/10 00:30:24;;;;;;;0.73;0.73;;;;;;;4.94;100.00;98394.03;4138379;28;20225;-46
2023/01/10 00:32:26;;;;;;;0.88;0.88;;;;;;;4.96;100.00;98402.81;4137017;28;20559;-45
2023/01/10 00:34:27;;;;;;;1.08;0.80;;;;;;;4.93;100.00;98397.00;4138474;28;20332;-46
2023/01/10 00:36:29;;;;;;;0.60;0.60;;;;;;;4.89;100.00;98407.44;4137128;28;20358;-46
2023/01/10 00:38:34;;;;;;;0.70;0.70;;;;;;;4.88;100.00;98405.75;4135107;28;20301;-45
2023/01/10 00:40:36;;;;;;;0.70;0.70;;;;;;;4.79;100.00;98408.97;4136682;28;20647;-46
2023/01/10 00:44:58;;;;;;;0.70;0.70;;;;;;;4.72;100.00;98422.53;4136350;28;20213;-46
2023/01/10 00:47:00;;;;;;;0.73;0.73;;;;;;;4.69;100.00;98439.22;4139382;28;20304;-45
2023/01/10 00:49:05;;;;;;;1.15;1.15;;;;;;;4.70;100.00;98438.19;4141309;28;20299;-45
2023/01/10 00:51:07;;;;;;;0.70;0.70;;;;;;;4.81;100.00;98437.47;4136127;28;20260;-46
2023/01/10 00:53:09;;;;;;;1.00;1.00;;;;;;;4.74;100.00;98447.53;4135513;28;20212;-46
2023/01/10 00:55:10;;;;;;;0.82;0.82;;;;;;;4.72;100.00;98455.03;4137225;28;20642;-45
2023/01/10 00:57:12;;;;;;;0.77;0.77;;;;;;;4.81;100.00;98459.16;4147680;28;20293;-46
2023/01/10 00:59:14;;;;;;;0.80;0.80;;;;;;;4.68;100.00;98475.47;4134676;28;20234;-46
2023/01/10 01:01:15;;;;;;;0.70;0.70;;;;;;;4.70;100.00;98478.81;4137759;28;20899;-45
2023/01/10 01:03:19;;;;;;;0.88;0.88;;;;;;;4.65;100.00;98486.75;4154451;28;20241;-46
2023/01/10 01:05:21;;;;;;;2.33;0.90;;;;;;;4.63;100.00;98483.44;4135680;28;20780;-46
2023/01/10 01:07:23;;;;;;;3.83;0.85;;;;;;;4.70;100.00;98497.78;4150999;28;20776;-45
2023/01/10 01:09:24;;;;;;;0.80;0.80;;;;;;;4.72;100.00;98495.69;4131143;28;20229;-46
2023/01/10 01:11:26;;;;;;;0.85;0.85;;;;;;;4.71;100.00;98510.28;4152032;28;20268;-47
2023/01/10 01:13:28;;;;;;;1.55;1.25;;;;;;;4.69;100.00;98503.41;4136961;28;20205;-46
2023/01/10 01:15:29;;;;;;;0.90;0.90;;;;;;;4.69;100.00;98516.97;4124073;28;20296;-46
2023/01/10 01:17:31;;;;;;;1.08;0.98;;;;;;;4.64;100.00;98533.88;4151451;28;20218;-45
2023/01/10 01:19:33;;;;;;;0.80;0.80;;;;;;;4.75;100.00;98543.22;4140113;28;20206;-46
2023/01/10 01:21:35;;;;;;;1.35;0.85;;;;;;;4.71;100.00;98545.53;4140137;28;20304;-46
2023/01/10 01:23:37;;;;;;;1.00;1.00;;;;;;;4.55;100.00;98548.69;4089646;28;1176959;-46
2023/01/10 01:25:38;;;;;;;1.10;1.10;;;;;;;4.68;100.00;98556.78;4152519;28;20298;-46
2023/01/10 01:27:40;;;;;;;0.75;0.70;;;;;;;4.58;100.00;98558.25;4136213;28;20316;-45
2023/01/10 01:29:42;;;;;;;1.33;1.15;;;;;;;4.71;100.00;98555.53;4141610;28;20741;-45
2023/01/10 01:31:44;;;;;;;0.82;0.82;;;;;;;4.62;100.00;98565.78;4137639;28;20225;-47
2023/01/10 01:33:46;;;;;;;0.90;0.90;;;;;;;4.62;100.00;98573.91;4125316;28;20217;-45
2023/01/10 01:35:49;;;;;;;2.70;1.40;;;;;;;4.59;100.00;98585.16;4151321;28;20245;-46
2023/01/10 01:37:51;;;;;;;1.23;1.13;;;;;;;4.72;100.00;98579.72;4138182;28;20228;-46
2023/01/10 01:39:52;;;;;;;0.93;0.93;;;;;;;4.73;100.00;98591.41;4137813;28;20215;-48
2023/01/10 01:41:57;;;;;;;0.90;0.90;;;;;;;4.61;100.00;98602.03;4123082;28;20273;-45
2023/01/10 01:44:10;;;;;;;0.70;0.70;;;;;;;4.66;100.00;98613.06;4138889;28;20244;-46
2023/01/10 01:46:11;;;;;;;1.30;1.20;;;;;;;4.75;100.00;98611.81;4140760;28;20363;-46
2023/01/10 01:48:19;;;;;;;2.33;0.70;;;;;;;4.68;100.00;98600.13;4124470;28;20209;-46
2023/01/10 01:50:28;;;;;;;1.20;1.17;;;;;;;4.67;100.00;98620.16;4136668;28;20303;-46
2023/01/10 01:52:33;;;;;;;1.05;1.05;;;;;;;4.69;100.00;98617.25;4138499;28;20206;-46
2023/01/10 01:54:35;;;;;;;2.33;0.70;;;;;;;4.66;100.00;98617.69;4132791;28;20253;-46
2023/01/10 01:56:43;;;;;;;1.92;1.05;;;;;;;4.64;100.00;98615.16;4136393;28;20208;-45
2023/01/10 01:58:54;;;;;;;1.10;1.00;;;;;;;4.66;100.00;98618.50;4133817;28;20300;-46
2023/01/10 02:00:57;;;;;;;1.20;1.10;;;;;;;4.67;100.00;98628.28;4149232;28;20256;-45
2023/01/10 02:02:59;;;;;;;1.23;1.13;;;;;;;4.70;100.00;98627.03;4137276;28;20222;-46
2023/01/10 02:05:08;;;;;;;0.90;0.90;;;;;;;4.71;100.00;98632.25;4129961;28;20268;-46
2023/01/10 02:07:11;;;;;;;1.00;1.00;;;;;;;4.75;100.00;98633.50;4168706;28;20215;-46
2023/01/10 02:09:22;;;;;;;2.05;1.25;;;;;;;4.77;100.00;98642.25;4132832;28;20209;-45
2023/01/10 02:11:24;;;;;;;1.98;1.88;;;;;;;4.73;100.00;98640.19;4151694;28;20323;-46
2023/01/10 02:13:26;;;;;;;0.80;0.80;;;;;;;4.74;100.00;98639.13;4133821;28;20218;-45
2023/01/10 02:15:28;;;;;;;2.30;0.85;;;;;;;4.77;100.00;98642.25;4135808;28;21285;-46
2023/01/10 02:17:30;;;;;;;0.90;0.90;;;;;;;4.90;100.00;98652.22;4137482;28;20566;-46
2023/01/10 02:19:53;;;;;;;0.95;0.95;;;;;;;4.62;100.00;98638.94;4136283;28;20210;-46
2023/01/10 02:22:07;;;;;;;0.95;0.75;;;;;;;4.64;100.00;98642.25;4137870;28;20308;-45
2023/01/10 02:24:36;;;;;;;1.45;0.95;;;;;;;4.63;100.00;98646.03;4137889;28;20304;-46
2023/01/10 02:26:59;;;;;;;1.25;1.15;;;;;;;4.59;100.00;98644.75;4139216;28;20212;-45
2023/01/10 02:29:28;;;;;;;1.20;1.17;;;;;;;4.61;100.00;98650.78;4138027;28;20242;-46
2023/01/10 02:32:31;;;;;;;1.00;1.00;;;;;;;4.55;100.00;98648.94;4151335;28;20304;-46
2023/01/10 02:34:59;;;;;;;1.00;1.00;;;;;;;4.49;100.00;98647.06;4103238;28;20207;-46
2023/01/10 02:37:03;;;;;;;2.42;0.93;;;;;;;4.55;100.00;98646.25;4134012;28;20245;-46
2023/01/10 02:39:17;;;;;;;1.65;1.55;;;;;;;4.53;100.00;98653.72;4135363;28;20260;-46
2023/01/10 02:41:46;;;;;;;0.90;0.90;;;;;;;4.55;100.00;98651.66;4134963;28;20257;-45
2023/01/10 02:43:57;;;;;;;1.30;1.20;;;;;;;4.58;100.00;98659.34;4136961;28;20256;-46
2023/01/10 02:46:03;;;;;;;1.25;0.88;;;;;;;4.62;100.00;98660.63;4140299;28;20308;-47
2023/01/10 02:48:04;;;;;;;1.02;1.02;;;;;;;4.52;100.00;98656.63;4133624;28;20239;-46
2023/01/10 02:50:43;;;;;;;1.13;1.00;;;;;;;4.52;100.00;98660.19;4119882;28;20305;-45
2023/01/10 02:52:44;;;;;;;1.40;1.05;;;;;;;4.43;100.00;98658.75;4125257;28;20201;-46
2023/01/10 02:54:47;;;;;;;1.13;1.13;;;;;;;4.48;100.00;98669.75;4119273;28;20233;-45
2023/01/10 02:57:16;;;;;;;1.13;1.05;;;;;;;4.39;100.00;98681.84;4150496;28;20239;-46
2023/01/10 03:00:03;;;;;;;1.73;1.60;;;;;;;4.49;100.00;98676.88;4139616;28;20670;-46
2023/01/10 03:02:11;;;;;;;1.10;1.10;;;;;;;4.49;100.00;98679.59;4146881;28;20927;-46
2023/01/10 03:04:15;;;;;;;6.13;1.00;;;;;;;4.57;100.00;98679.38;4135623;28;20301;-46
2023/01/10 03:06:44;;;;;;;1.05;1.05;;;;;;;4.52;100.00;98681.00;4139421;28;20243;-46
2023/01/10 03:09:02;;;;;;;0.98;0.98;;;;;;;4.52;100.00;98691.84;4103916;28;20243;-46
2023/01/10 03:11:05;;;;;;;1.65;1.55;;;;;;;4.54;100.00;98689.78;4138783;28;20320;-45
2023/01/10 03:13:09;;;;;;;1.00;1.00;;;;;;;4.48;100.00;98696.84;4134596;28;20300;-47
2023/01/10 03:15:13;;;;;;;2.05;1.30;;;;;;;4.53;100.00;98698.97;4134729;28;20229;-46
2023/01/10 03:17:15;;;;;;;1.85;1.58;;;;;;;4.57;100.00;98706.47;4133924;28;20247;-46
2023/01/10 03:19:22;;;;;;;1.52;1.42;;;;;;;4.52;100.00;98714.38;4134198;28;20272;-46
2023/01/10 03:21:25;;;;;;;1.27;1.15;;;;;;;4.53;100.00;98707.91;4150067;28;20228;-46
2023/01/10 03:23:27;;;;;;;3.88;1.20;;;;;;;4.48;100.00;98707.69;4147296;28;20253;-46
2023/01/10 03:25:33;;;;;;;2.63;2.42;;;;;;;4.51;100.00;98707.28;4137999;28;20778;-46
2023/01/10 03:27:39;;;;;;;1.48;1.38;;;;;;;4.46;100.00;98714.38;4139838;28;20202;-46
2023/01/10 03:29:56;;;;;;;4.05;2.03;;;;;;;4.54;100.00;98704.16;4121749;28;20241;-46
2023/01/10 03:32:01;;;;;;;5.53;1.83;;;;;;;4.50;100.00;98711.03;4165592;28;21061;-46
2023/01/10 03:34:03;;;;;;;2.67;2.47;;;;;;;4.52;100.00;98717.09;4135662;28;20271;-46
2023/01/10 03:36:31;;;;;;;1.67;1.58;;;;;;;4.56;100.00;98725.63;4115879;28;20215;-46
2023/01/10 03:38:40;;;;;;;3.25;1.65;;;;;;;4.60;100.00;98726.91;4151636;28;20200;-46
2023/01/10 03:41:03;;;;;;;2.08;1.33;;;;;;;4.58;100.00;98740.66;4151892;28;20240;-46
2023/01/10 03:45:50;;;;;;;5.13;1.92;;;;;;;4.68;100.00;98743.75;4136556;28;20280;-45
2023/01/10 03:47:53;;;;;;;3.60;1.30;;;;;;;4.67;100.00;98747.53;4132986;28;20217;-46
2023/01/10 03:50:11;;;;;;;7.95;1.80;;;;;;;4.71;100.00;98751.50;4137012;28;20660;-46
2023/01/10 03:52:15;;;;;;;2.75;2.00;;;;;;;4.69;100.00;98752.75;4133608;28;20201;-46
2023/01/10 03:54:17;;;;;;;11.77;1.33;;;;;;;4.77;100.00;98761.50;4135893;28;20696;-46
2023/01/10 03:56:19;;;;;;;2.13;1.98;;;;;;;4.70;100.00;98759.81;4137487;28;20213;-45
2023/01/10 03:58:20;;;;;;;3.22;1.42;;;;;;;4.72;100.00;98769.41;4134868;28;20723;-46
2023/01/10 04:00:23;;;;;;;2.38;1.38;;;;;;;4.72;100.00;98768.56;4137508;28;20237;-46
2023/01/10 04:02:27;;;;;;;3.38;1.83;;;;;;;4.70;100.00;98766.09;4132684;28;20209;-46
2023/01/10 04:04:29;;;;;;;2.08;1.98;;;;;;;4.71;100.00;98778.59;4133705;28;20339;-45
2023/01/10 04:06:30;;;;;;;1.88;1.77;;;;;;;4.80;100.00;98774.63;4135515;28;20213;-46
2023/01/10 04:08:32;;;;;;;3.75;1.95;;;;;;;4.74;100.00;98772.75;4135661;28;20759;-46
2023/01/10 04:10:34;;;;;;;9.60;3.15;;;;;;;4.79;100.00;98775.69;4133853;28;20234;-46
2023/01/10 04:12:35;;;;;;;1.48;1.23;;;;;;;4.80;100.00;98773.81;4133667;28;20220;-46
2023/01/10 04:14:38;;;;;;;8.80;1.83;;;;;;;4.73;100.00;98784.63;4136336;28;20201;-46
2023/01/10 04:16:39;;;;;;;1.83;1.45;;;;;;;4.82;100.00;98788.00;4136205;28;20296;-47
2023/01/10 04:18:41;;;;;;;3.75;2.25;;;;;;;4.78;100.00;98789.44;4138461;28;20238;-46
2023/01/10 04:20:43;;;;;;;4.85;1.65;;;;;;;4.72;100.00;98801.94;4139041;28;20229;-46
2023/01/10 04:22:44;;;;;;;2.92;1.40;;;;;;;4.77;100.00;98810.31;4140673;28;20253;-46
2023/01/10 04:24:47;;;;;;;1.77;1.65;;;;;;;4.74;100.00;98810.69;4139670;28;20301;-46
2023/01/10 04:26:49;;;;;;;4.70;1.63;;;;;;;4.78;100.00;98817.38;4144353;28;20300;-46
2023/01/10 04:28:50;;;;;;;4.93;1.50;;;;;;;4.80;100.00;98825.31;4142355;28;20213;-46
2023/01/10 04:30:52;;;;;;;2.60;1.65;;;;;;;4.80;100.00;98830.75;4142080;28;20750;-46
2023/01/10 04:32:54;;;;;;;2.35;1.60;;;;;;;4.76;100.00;98837.59;4139747;28;20228;-46
2023/01/10 04:34:56;;;;;;;2.38;1.70;;;;;;;4.75;100.00;98839.50;4143898;28;20305;-46
2023/01/10 04:36:58;;;;;;;2.13;1.92;;;;;;;4.74;100.00;98837.81;4138997;28;20260;-46
2023/01/10 04:38:59;;;;;;;1.77;1.42;;;;;;;4.74;100.00;98845.94;4139393;28;20272;-47
2023/01/10 04:41:01;;;;;;;3.17;1.60;;;;;;;4.69;100.00;98845.72;4141831;28;20272;-45
2023/01/10 04:43:03;;;;;;;2.65;1.52;;;;;;;4.72;100.00;98850.72;4123155;28;20290;-46
2023/01/10 04:45:05;;;;;;;4.45;1.73;;;;;;;4.78;100.00;98860.75;4152635;28;20314;-46
2023/01/10 04:47:07;;;;;;;3.67;1.70;;;;;;;4.79;100.00;98859.72;4135933;28;20241;-46
2023/01/10 04:49:09;;;;;;;2.95;1.70;;;;;;;4.77;100.00;98867.22;4151035;28;20220;-45
2023/01/10 04:51:11;;;;;;;3.47;1.95;;;;;;;4.80;100.00;98869.50;4135306;28;20328;-46
2023/01/10 04:53:13;;;;;;;2.42;1.80;;;;;;;4.76;100.00;98862.84;4129788;28;20232;-47
2023/01/10 04:55:14;;;;;;;5.13;2.17;;;;;;;4.78;100.00;98860.75;4139723;28;20305;-46
2023/01/10 04:57:16;;;;;;;6.60;3.25;;;;;;;4.81;100.00;98868.47;4154977;28;20826;-46
2023/01/10 04:59:18;;;;;;;4.28;1.60;;;;;;;4.82;100.00;98866.59;4139159;28;20224;-46
2023/01/10 05:01:22;;;;;;;7.80;2.53;;;;;;;4.77;100.00;98867.22;4139674;28;20226;-45
2023/01/10 05:03:24;;;;;;;2.00;1.83;;;;;;;4.76;100.00;98870.97;4137879;28;20225;-46
2023/01/10 05:05:30;;;;;;;7.70;2.03;;;;;;;4.79;100.00;98873.25;4140225;28;20233;-46
2023/01/10 05:07:31;;;;;;;2.40;2.20;;;;;;;4.82;100.00;98877.44;4138289;28;20221;-45
2023/01/10 05:09:33;;;;;;;2.95;1.98;;;;;;;4.82;100.00;98878.28;4140333;28;20249;-47
2023/01/10 05:11:35;;;;;;;3.85;2.58;;;;;;;4.80;100.00;98885.78;4154888;28;20260;-46
2023/01/10 05:13:37;;;;;;;3.03;2.08;;;;;;;4.82;100.00;98878.28;4154244;28;20693;-46
2023/01/10 05:15:39;;;;;;;4.07;1.77;;;;;;;4.79;100.00;98883.28;4140782;28;20304;-46
2023/01/10 05:17:44;;;;;;;5.38;2.42;;;;;;;4.87;100.00;98888.53;4137588;28;20209;-45
2023/01/10 05:19:46;;;;;;;3.53;2.63;;;;;;;4.86;100.00;98879.53;4152246;28;20232;-46
2023/01/10 05:21:48;;;;;;;11.98;3.10;;;;;;;4.78;100.00;98887.88;4137457;28;20312;-45
2023/01/10 05:23:50;;;;;;;3.28;2.67;;;;;;;4.74;100.00;98886.59;4126378;28;20327;-45
2023/01/10 05:25:52;;;;;;;9.23;2.72;;;;;;;4.82;100.00;98889.13;4131476;28;20240;-46
2023/01/10 05:27:54;;;;;;;3.28;2.95;;;;;;;4.78;100.00;98892.44;4136122;28;20300;-46
2023/01/10 05:29:55;;;;;;;7.10;2.25;;;;;;;4.80;100.00;98879.53;4137041;28;20212;-46
2023/01/10 05:31:57;;;;;;;3.42;2.95;;;;;;;4.78;100.00;98893.28;4153273;28;20319;-45
2023/01/10 05:33:59;;;;;;;6.43;2.25;;;;;;;4.72;100.00;98899.53;4137515;28;20698;-45
2023/01/10 05:36:02;;;;;;;7.43;3.17;;;;;;;4.76;100.00;98908.06;4139586;28;20213;-46
2023/01/10 05:38:04;;;;;;;5.78;2.50;;;;;;;4.77;100.00;98901.59;4136246;28;20244;-46
2023/01/10 05:40:06;;;;;;;2.92;1.48;;;;;;;4.82;100.00;98910.81;4138443;28;20209;-46
2023/01/10 05:42:08;;;;;;;7.95;1.70;;;;;;;4.80;100.00;98918.31;4150956;28;20765;-46
2023/01/10 05:44:09;;;;;;;7.15;2.30;;;;;;;4.79;100.00;98916.63;4129941;28;20256;-46
2023/01/10 05:46:11;;;;;;;7.95;3.17;;;;;;;4.78;100.00;98914.13;4167397;28;20212;-46
2023/01/10 05:48:13;;;;;;;6.35;2.25;;;;;;;4.77;100.00;98913.31;4137377;28;20316;-45
2023/01/10 05:50:15;;;;;;;2.38;1.80;;;;;;;4.73;100.00;98916.63;4151154;28;20236;-46
2023/01/10 05:52:19;;;;;;;2.60;1.77;;;;;;;4.75;100.00;98915.38;4149629;28;20216;-45
2023/01/10 05:54:21;;;;;;;7.40;4.53;;;;;;;4.81;100.00;98919.97;4135249;28;20208;-46
2023/01/10 05:56:23;;;;;;;6.25;1.80;;;;;;;4.77;100.00;98924.16;4133273;28;20249;-45
2023/01/10 05:58:25;;;;;;;4.10;1.73;;;;;;;4.80;100.00;98921.00;4132784;28;20727;-45
2023/01/10 06:00:27;;;;;;;15.18;2.08;;;;;;;4.74;100.00;98919.13;4133356;28;20794;-46
2023/01/10 06:02:29;;;;;;;3.20;2.00;;;;;;;4.69;100.00;98915.34;4134564;28;20218;-46
2023/01/10 06:04:31;;;;;;;2.05;1.80;;;;;;;4.66;100.00;98916.59;4121780;28;20245;-45
2023/01/10 06:06:41;;;;;;;6.68;1.85;;;;;;;4.67;100.00;98918.25;4135105;28;20990;-46
2023/01/10 06:08:43;;;;;;;7.47;2.85;;;;;;;4.69;100.00;98918.91;4135178;28;20256;-46
2023/01/10 06:10:45;;;;;;;2.70;2.50;;;;;;;4.65;100.00;98931.19;4134603;28;20225;-45
2023/01/10 06:12:48;;;;;;;8.75;2.67;;;;;;;4.59;100.00;98942.81;4134104;28;20209;-45
2023/01/10 06:14:50;;;;;;;5.35;2.50;;;;;;;4.55;100.00;98957.84;4134993;28;20293;-46
2023/01/10 06:16:52;;;;;;;5.30;2.22;;;;;;;4.58;100.00;98962.84;4135078;28;20267;-46
2023/01/10 06:18:54;;;;;;;8.52;2.33;;;;;;;4.60;100.00;98966.19;4125998;28;20217;-46
2023/01/10 06:20:56;;;;;;;5.57;1.98;;;;;;;4.61;100.00;98978.69;4139960;28;20240;-46
2023/01/10 06:23:01;;;;;;;3.25;2.75;;;;;;;4.55;100.00;98971.38;4124495;28;20354;-46
2023/01/10 06:25:03;;;;;;;9.45;2.90;;;;;;;4.64;100.00;98974.75;4138356;28;20241;-45
2023/01/10 06:27:05;;;;;;;11.45;2.67;;;;;;;4.62;100.00;98966.84;4135868;28;20236;-46
2023/01/10 06:29:07;;;;;;;9.93;3.42;;;;;;;4.61;100.00;98951.59;4139414;28;20214;-45
2023/01/10 06:31:09;;;;;;;8.10;2.45;;;;;;;4.59;100.00;98944.72;4138637;28;20781;-45
2023/01/10 06:33:11;;;;;;;4.30;1.85;;;;;;;4.54;100.00;98944.47;4135485;28;20605;-45
2023/01/10 06:35:13;;;;;;;4.03;2.13;;;;;;;4.41;100.00;98960.66;4139698;28;20201;-44
2023/01/10 06:37:15;;;;;;;3.40;3.17;;;;;;;4.40;100.00;98967.13;4138006;28;20207;-44
2023/01/10 06:39:20;;;;;;;2.40;2.30;;;;;;;4.47;100.00;98982.38;4135276;28;20216;-45
2023/01/10 06:41:22;;;;;;;4.72;2.10;;;;;;;4.50;100.00;98992.81;4133582;28;20287;-46
2023/01/10 06:43:24;;;;;;;3.67;2.33;;;;;;;4.54;100.00;98995.97;4133893;28;20252;-47
2023/01/10 06:45:26;;;;;;;11.30;2.53;;;;;;;4.54;100.00;99004.09;4120345;28;20769;-46
2023/01/10 06:47:28;;;;;;;5.55;2.33;;;;;;;4.55;100.00;98998.47;4136127;28;20803;-47
2023/01/10 06:49:30;;;;;;;3.53;2.15;;;;;;;4.61;100.00;98996.84;4136579;28;20268;-46
2023/01/10 06:51:32;;;;;;;3.10;2.85;;;;;;;4.60;100.00;98998.69;4135817;28;20229;-45
2023/01/10 06:53:34;;;;;;;5.70;2.10;;;;;;;4.57;100.00;99015.38;4135692;28;20216;-46
2023/01/10 06:55:37;;;;;;;5.93;2.78;;;;;;;4.61;100.00;99019.34;4135811;28;20237;-47
2023/01/10 06:57:39;;;;;;;3.92;1.90;;;;;;;4.63;100.00;99020.00;4129088;28;20830;-45
2023/01/10 06:59:41;;;;;;;2.83;2.42;;;;;;;4.68;100.00;99019.38;4134423;28;21152;-45
2023/01/10 07:01:43;;;;;;;2.38;2.13;;;;;;;4.70;100.00;99020.88;4134718;28;20240;-46
2023/01/10 07:03:45;;;;;;;2.67;2.45;;;;;;;4.68;100.00;99025.63;4136498;28;20236;-46
2023/01/10 07:05:50;;;;;;;4.15;2.30;;;;;;;4.68;100.00;99012.06;4152149;28;20219;-45
2023/01/10 07:07:52;;;;;;;3.25;1.95;;;;;;;4.68;100.00;99017.50;4138138;28;20696;-48
2023/01/10 07:09:54;;;;;;;3.72;2.00;;;;;;;4.69;100.00;99024.63;4122008;28;20267;-45
2023/01/10 07:11:56;;;;;;;4.57;2.55;;;;;;;4.70;100.00;99029.00;4138230;28;20233;-46
2023/01/10 07:13:59;;;;;;;2.53;2.33;;;;;;;4.69;100.00;99029.19;4135825;28;20206;-45
2023/01/10 07:16:06;;;;;;;5.25;2.03;;;;;;;4.66;100.00;99025.00;4138229;28;20320;-46
2023/01/10 07:18:08;;;;;;;8.23;2.53;;;;;;;4.66;100.00;99018.75;4135199;28;20263;-45
2023/01/10 07:20:13;;;;;;;1.75;1.52;;;;;;;4.66;100.00;99014.16;4165111;28;20574;-45
2023/01/10 07:22:15;;;;;;;9.52;2.60;;;;;;;4.65;100.00;99017.91;4134695;28;20213;-45
2023/01/10 07:24:17;;;;;;;3.63;2.58;;;;;;;4.65;100.00;99023.31;4115258;28;20320;-46
2023/01/10 07:26:19;;;;;;;5.03;2.50;;;;;;;4.63;100.00;99022.69;4133710;28;20300;-46
2023/01/10 07:28:21;;;;;;;2.75;2.45;;;;;;;4.66;100.00;99025.00;4158690;28;20299;-48
2023/01/10 07:30:23;;;;;;;10.55;2.30;;;;;;;4.69;100.00;99021.91;4142338;28;20241;-48
2023/01/10 07:32:26;;;;;;;14.73;2.28;;;;;;;4.66;100.00;99037.72;4137076;28;20206;-47
2023/01/10 07:34:28;;;;;;;11.60;2.20;;;;;;;4.66;100.00;99040.44;4131967;28;20216;-47
2023/01/10 07:36:30;;;;;;;4.47;3.55;;;;;;;4.65;100.00;99045.00;4135743;28;20850;-47
2023/01/10 07:38:32;;;;;;;5.43;2.38;;;;;;;4.64;100.00;99043.34;4135445;28;20284;-47
2023/01/10 07:40:34;;;;;;;4.72;2.47;;;;;;;4.67;100.00;99040.22;4149003;28;20264;-46
2023/01/10 07:42:35;;;;;;;2.30;2.03;;;;;;;4.69;100.00;99040.88;4148573;28;20336;-47
2023/01/10 07:44:37;;;;;;;3.47;2.72;;;;;;;4.68;100.00;99046.50;4133880;28;20642;-47
2023/01/10 07:46:39;;;;;;;5.45;2.25;;;;;;;4.61;100.00;99049.16;4134748;28;20672;-47
2023/01/10 07:48:40;;;;;;;7.10;2.38;;;;;;;4.64;100.00;99051.47;4133000;28;20320;-47
2023/01/10 07:50:42;;;;;;;11.52;2.47;;;;;;;4.60;100.00;99043.94;4133534;28;20299;-47
2023/01/10 07:52:46;;;;;;;6.75;1.75;;;;;;;4.65;100.00;99047.72;4137531;28;20633;-47
2023/01/10 07:54:49;;;;;;;2.50;1.90;;;;;;;4.66;100.00;99051.28;4142607;28;20726;-46
2023/01/10 07:56:51;;;;;;;4.45;2.50;;;;;;;4.66;100.00;99062.94;4140149;28;20198;-47
2023/01/10 07:58:53;;;;;;;5.45;2.70;;;;;;;4.72;100.00;99056.72;4126043;28;20203;-47
2023/01/10 08:01:02;;;;;;;5.03;1.92;;;;;;;4.70;100.00;99064.22;4138537;28;20312;-47
2023/01/10 08:03:09;;;;;;;7.53;2.22;;;;;;;4.66;100.00;99073.78;4139779;28;20205;-46
2023/01/10 08:05:13;;;;;;;9.55;2.33;;;;;;;4.73;100.00;99080.06;4139556;28;20209;-46
2023/01/10 08:07:15;;;;;;;3.10;2.75;;;;;;;4.77;100.00;99078.66;4124063;28;20256;-47
2023/01/10 08:09:17;;;;;;;4.75;2.40;;;;;;;4.82;100.00;99083.47;4140511;28;20260;-47
2023/01/10 08:11:20;;;;;;;2.95;2.22;;;;;;;4.81;100.00;99087.22;4144287;28;20731;-46
2023/01/10 08:13:22;;;;;;;4.90;2.40;;;;;;;4.85;100.00;99088.47;4129952;28;20210;-47
2023/01/10 08:15:33;;;;;;;7.80;2.63;;;;;;;4.81;100.00;99082.63;4139470;28;20202;-47
2023/01/10 08:17:35;;;;;;;4.75;2.03;;;;;;;4.83;100.00;99086.00;4146293;28;20754;-47
2023/01/10 08:19:37;;;;;;;6.45;1.45;;;;;;;4.87;100.00;99087.25;4135598;28;20224;-47
2023/01/10 08:21:39;;;;;;;7.93;2.38;;;;;;;4.83;100.00;99094.13;4137941;28;20229;-47
2023/01/10 08:23:41;;;;;;;5.40;1.98;;;;;;;4.85;100.00;99094.75;4135742;28;20221;-46
2023/01/10 08:25:44;;;;;;;4.45;2.20;;;;;;;4.82;100.00;99089.75;4137198;28;20257;-46
2023/01/10 08:27:46;;;;;;;3.80;2.55;;;;;;;4.84;100.00;99098.50;4139102;28;20304;-47
2023/01/10 08:29:48;;;;;;;3.95;2.40;;;;;;;4.85;100.00;99105.59;4138643;28;20213;-47
2023/01/10 08:31:50;;;;;;;8.95;2.40;;;;;;;4.91;100.00;99102.09;4140170;28;20680;-47
2023/01/10 08:33:52;;;;;;;2.55;2.42;;;;;;;4.88;100.00;99104.38;4139482;28;20235;-47
2023/01/10 08:35:54;;;;;;;2.58;2.05;;;;;;;4.96;100.00;99098.78;4143440;28;20687;-47
2023/01/10 08:37:58;;;;;;;4.53;3.28;;;;;;;5.00;100.00;99106.31;4140156;28;20213;-47
2023/01/10 08:40:01;;;;;;;7.60;1.80;;;;;;;5.00;100.00;99102.78;4154822;28;20196;-47
2023/01/10 08:42:03;;;;;;;14.95;2.70;;;;;;;4.95;100.00;99105.25;4137315;28;20232;-47
2023/01/10 08:44:05;;;;;;;7.75;3.22;;;;;;;4.92;100.00;99111.91;4140042;28;20554;-47
2023/01/10 08:46:07;;;;;;;6.97;2.47;;;;;;;4.96;100.00;99107.75;4139603;28;20221;-47
2023/01/10 08:48:10;;;;;;;3.65;3.08;;;;;;;4.92;100.00;99117.31;4141041;28;20217;-46
2023/01/10 08:50:12;;;;;;;4.50;2.05;;;;;;;4.90;100.00;99130.25;4123073;28;20346;-47
2023/01/10 08:52:13;;;;;;;5.90;2.53;;;;;;;5.02;100.00;99138.66;4139109;28;20711;-47
2023/01/10 08:54:16;;;;;;;14.05;2.80;;;;;;;5.09;100.00;99134.94;4135333;28;20218;-46
2023/01/10 08:56:18;;;;;;;7.72;2.75;;;;;;;5.22;100.00;99145.88;4136563;28;20213;-46
2023/01/10 08:58:20;;;;;;;10.13;2.80;;;;;;;5.25;100.00;99145.47;4123540;28;20379;-46
2023/01/10 09:00:22;;;;;;;14.48;2.75;;;;;;;5.22;100.00;99135.03;4123486;28;20289;-47
2023/01/10 09:02:24;;;;;;;2.78;1.98;;;;;;;5.16;100.00;99131.22;4153745;28;20211;-46
2023/01/10 09:04:27;;;;;;;5.45;2.15;;;;;;;5.19;100.00;99135.41;4147349;28;20229;-46
2023/01/10 09:06:31;;;;;;;5.55;2.88;;;;;;;5.17;100.00;99126.66;4133635;28;20701;-47
2023/01/10 09:08:34;;;;;;;5.53;2.47;;;;;;;5.14;100.00;99133.31;4135871;28;20680;-47
2023/01/10 09:10:36;;;;;;;5.97;2.75;;;;;;;5.22;100.00;99135.03;4130920;28;20565;-47
2023/01/10 09:12:54;;;;;;;6.28;1.75;;;;;;;5.27;100.00;99138.81;4133314;28;20216;-46
2023/01/10 09:14:56;;;;;;;5.43;2.63;;;;;;;5.27;100.00;99137.94;4134257;28;20213;-47
2023/01/10 09:16:58;;;;;;;3.97;1.75;;;;;;;5.20;100.00;99146.06;4137661;28;20210;-47
2023/01/10 09:19:00;;;;;;;8.63;2.42;;;;;;;5.17;100.00;99153.78;4135013;28;20659;-47
2023/01/10 09:21:02;;;;;;;4.05;1.77;;;;;;;5.21;100.00;99146.88;4142015;28;22393;-47
2023/01/10 09:23:09;;;;;;;4.80;2.45;;;;;;;5.18;100.00;99155.44;4137671;28;20263;-46
2023/01/10 09:25:11;;;;;;;2.72;1.75;;;;;;;5.25;100.00;99159.03;4135466;28;20595;-47
2023/01/10 09:27:13;;;;;;;4.70;2.20;;;;;;;5.28;100.00;99173.03;4136997;28;20209;-47
2023/01/10 09:29:16;;;;;;;4.88;2.38;;;;;;;5.19;100.00;99167.97;4135464;28;20213;-46
2023/01/10 09:31:18;;;;;;;4.70;1.83;;;;;;;5.26;100.00;99174.25;4140044;28;20312;-46
2023/01/10 09:33:21;;;;;;;3.22;2.63;;;;;;;5.27;100.00;99167.78;4133459;28;20202;-47
2023/01/10 09:35:24;;;;;;;3.92;2.90;;;;;;;5.30;100.00;99176.38;4139599;28;20285;-46
2023/01/10 09:37:26;;;;;;;16.60;2.33;;;;;;;5.33;100.00;99175.97;4140990;28;20308;-47
2023/01/10 09:39:28;;;;;;;4.97;2.25;;;;;;;5.33;100.00;99178.69;4135456;28;20205;-46
2023/01/10 09:41:47;;;;;;;6.53;2.78;;;;;;;5.27;100.00;99174.06;4120802;28;20329;-46
2023/01/10 09:44:09;;;;;;;4.78;1.90;;;;;;;5.31;100.00;99179.94;4127698;28;20206;-46
2023/01/10 09:46:16;;;;;;;7.10;2.30;;;;;;;5.17;100.00;99191.75;4168507;28;20311;-46
2023/01/10 09:48:54;;;;;;;13.65;2.45;;;;;;;5.22;100.00;99192.00;4152375;28;20294;-47
2023/01/10 09:51:03;;;;;;;8.32;4.38;;;;;;;5.20;100.00;99203.03;4130138;28;20323;-47
2023/01/10 09:53:24;;;;;;;4.45;2.85;;;;;;;5.30;100.00;99202.69;4138022;28;20653;-47
2023/01/10 09:55:32;;;;;;;9.75;2.30;;;;;;;5.22;100.00;99211.81;4137340;28;20213;-47